sensor_id;sensor_type;location;lat;lon;timestamp;temperature;humidity
15343;DHT22;7771;48.478;8.936;2023-07-09T00:01:16;22.90;93.00
15343;DHT22;7771;48.478;8.936;2023-07-09T00:03:43;22.90;93.10
15343;DHT22;7771;48.478;8.936;2023-07-09T00:06:09;22.90;93.30
15343;DHT22;7771;48.478;8.936;2023-07-09T00:08:36;22.90;93.40
15343;DHT22;7771;48.478;8.936;2023-07-09T00:11:03;22.90;93.50
15343;DHT22;7771;48.478;8.936;2023-07-09T00:13:29;22.90;93.70
15343;DHT22;7771;48.478;8.936;2023-07-09T00:15:59;22.90;94.00
15343;DHT22;7771;48.478;8.936;2023-07-09T00:18:25;22.90;93.90
15343;DHT22;7771;48.478;8.936;2023-07-09T00:20:52;22.90;94.10
15343;DHT22;7771;48.478;8.936;2023-07-09T00:23:19;22.80;94.20
15343;DHT22;7771;48.478;8.936;2023-07-09T00:25:46;22.70;94.50
15343;DHT22;7771;48.478;8.936;2023-07-09T00:28:15;22.70;94.70
15343;DHT22;7771;48.478;8.936;2023-07-09T00:30:42;22.70;94.80
15343;DHT22;7771;48.478;8.936;2023-07-09T00:33:12;22.70;95.10
15343;DHT22;7771;48.478;8.936;2023-07-09T00:35:38;22.60;95.20
15343;DHT22;7771;48.478;8.936;2023-07-09T00:38:08;22.50;95.50
15343;DHT22;7771;48.478;8.936;2023-07-09T00:40:32;22.40;95.70
15343;DHT22;7771;48.478;8.936;2023-07-09T00:43:00;22.30;95.90
15343;DHT22;7771;48.478;8.936;2023-07-09T00:45:27;22.30;96.20
15343;DHT22;7771;48.478;8.936;2023-07-09T00:47:58;22.20;96.40
15343;DHT22;7771;48.478;8.936;2023-07-09T00:50:31;22.20;96.70
15343;DHT22;7771;48.478;8.936;2023-07-09T00:52:59;22.10;96.90
15343;DHT22;7771;48.478;8.936;2023-07-09T00:55:25;22.00;97.10
15343;DHT22;7771;48.478;8.936;2023-07-09T00:57:51;21.90;97.40
15343;DHT22;7771;48.478;8.936;2023-07-09T01:00:18;21.80;97.70
15343;DHT22;7771;48.478;8.936;2023-07-09T01:02:46;21.70;98.00
15343;DHT22;7771;48.478;8.936;2023-07-09T01:05:13;21.60;98.40
15343;DHT22;7771;48.478;8.936;2023-07-09T01:07:41;21.50;98.70
15343;DHT22;7771;48.478;8.936;2023-07-09T01:10:09;21.50;99.10
15343;DHT22;7771;48.478;8.936;2023-07-09T01:12:36;21.50;99.40
15343;DHT22;7771;48.478;8.936;2023-07-09T01:15:03;21.40;99.70
15343;DHT22;7771;48.478;8.936;2023-07-09T01:17:30;21.30;99.90
15343;DHT22;7771;48.478;8.936;2023-07-09T01:19:57;21.30;99.90
15343;DHT22;7771;48.478;8.936;2023-07-09T01:22:25;21.20;99.90
15343;DHT22;7771;48.478;8.936;2023-07-09T01:24:59;21.20;99.90
15343;DHT22;7771;48.478;8.936;2023-07-09T01:27:27;21.20;99.90
15343;DHT22;7771;48.478;8.936;2023-07-09T01:29:54;21.10;99.90
15343;DHT22;7771;48.478;8.936;2023-07-09T01:34:48;21.00;99.90
15343;DHT22;7771;48.478;8.936;2023-07-09T01:37:17;21.00;99.90
15343;DHT22;7771;48.478;8.936;2023-07-09T01:39:44;21.00;99.90
15343;DHT22;7771;48.478;8.936;2023-07-09T01:42:10;21.00;99.90
15343;DHT22;7771;48.478;8.936;2023-07-09T01:44:38;20.90;99.90
15343;DHT22;7771;48.478;8.936;2023-07-09T01:47:05;20.90;99.90
15343;DHT22;7771;48.478;8.936;2023-07-09T01:49:32;20.70;99.90
15343;DHT22;7771;48.478;8.936;2023-07-09T01:52:00;20.60;99.90
15343;DHT22;7771;48.478;8.936;2023-07-09T01:57:11;20.60;99.90
15343;DHT22;7771;48.478;8.936;2023-07-09T01:59:21;20.60;99.90
15343;DHT22;7771;48.478;8.936;2023-07-09T02:01:50;20.60;99.90
15343;DHT22;7771;48.478;8.936;2023-07-09T02:04:17;20.60;99.90
15343;DHT22;7771;48.478;8.936;2023-07-09T02:11:40;20.60;99.90
15343;DHT22;7771;48.478;8.936;2023-07-09T02:14:07;20.60;99.90
15343;DHT22;7771;48.478;8.936;2023-07-09T02:16:34;20.60;99.90
15343;DHT22;7771;48.478;8.936;2023-07-09T02:21:29;20.70;99.90
15343;DHT22;7771;48.478;8.936;2023-07-09T02:23:57;20.70;99.90
15343;DHT22;7771;48.478;8.936;2023-07-09T02:26:24;20.70;99.90
15343;DHT22;7771;48.478;8.936;2023-07-09T02:28:51;20.70;99.90
15343;DHT22;7771;48.478;8.936;2023-07-09T02:31:18;20.70;99.90
15343;DHT22;7771;48.478;8.936;2023-07-09T02:36:13;20.70;99.90
15343;DHT22;7771;48.478;8.936;2023-07-09T02:38:41;20.70;99.90
15343;DHT22;7771;48.478;8.936;2023-07-09T02:46:04;20.40;99.90
15343;DHT22;7771;48.478;8.936;2023-07-09T02:48:31;20.40;99.90
15343;DHT22;7771;48.478;8.936;2023-07-09T02:50:58;20.30;99.90
15343;DHT22;7771;48.478;8.936;2023-07-09T02:53:25;20.30;99.90
15343;DHT22;7771;48.478;8.936;2023-07-09T02:55:52;20.40;99.90
15343;DHT22;7771;48.478;8.936;2023-07-09T02:58:19;20.40;99.90
15343;DHT22;7771;48.478;8.936;2023-07-09T03:00:49;20.20;99.90
15343;DHT22;7771;48.478;8.936;2023-07-09T03:03:15;20.10;99.90
15343;DHT22;7771;48.478;8.936;2023-07-09T03:08:12;20.00;99.90
15343;DHT22;7771;48.478;8.936;2023-07-09T03:10:38;20.00;99.90
15343;DHT22;7771;48.478;8.936;2023-07-09T03:13:06;20.00;99.90
15343;DHT22;7771;48.478;8.936;2023-07-09T03:15:32;20.00;99.90
15343;DHT22;7771;48.478;8.936;2023-07-09T03:17:59;20.00;99.90
15343;DHT22;7771;48.478;8.936;2023-07-09T03:20:26;20.00;99.90
15343;DHT22;7771;48.478;8.936;2023-07-09T03:22:54;20.00;99.90
15343;DHT22;7771;48.478;8.936;2023-07-09T03:25:22;20.00;99.90
15343;DHT22;7771;48.478;8.936;2023-07-09T03:27:48;20.00;99.90
15343;DHT22;7771;48.478;8.936;2023-07-09T03:30:15;20.00;99.90
15343;DHT22;7771;48.478;8.936;2023-07-09T03:32:43;19.90;99.90
15343;DHT22;7771;48.478;8.936;2023-07-09T03:35:09;20.00;99.90
15343;DHT22;7771;48.478;8.936;2023-07-09T03:37:37;19.90;99.90
15343;DHT22;7771;48.478;8.936;2023-07-09T03:40:04;19.90;99.90
15343;DHT22;7771;48.478;8.936;2023-07-09T03:42:30;20.00;99.90
15343;DHT22;7771;48.478;8.936;2023-07-09T03:47:25;19.90;99.90
15343;DHT22;7771;48.478;8.936;2023-07-09T03:52:20;19.90;99.90
15343;DHT22;7771;48.478;8.936;2023-07-09T03:54:47;19.90;99.90
15343;DHT22;7771;48.478;8.936;2023-07-09T03:57:14;19.90;99.90
15343;DHT22;7771;48.478;8.936;2023-07-09T03:59:40;19.90;99.90
15343;DHT22;7771;48.478;8.936;2023-07-09T04:02:07;19.80;99.90
15343;DHT22;7771;48.478;8.936;2023-07-09T04:04:34;19.80;99.90
15343;DHT22;7771;48.478;8.936;2023-07-09T04:07:02;19.80;99.90
15343;DHT22;7771;48.478;8.936;2023-07-09T04:09:28;19.80;99.90
15343;DHT22;7771;48.478;8.936;2023-07-09T04:11:56;19.80;99.90
15343;DHT22;7771;48.478;8.936;2023-07-09T04:14:22;19.70;99.90
15343;DHT22;7771;48.478;8.936;2023-07-09T04:16:49;19.80;99.90
15343;DHT22;7771;48.478;8.936;2023-07-09T04:19:17;19.70;99.90
15343;DHT22;7771;48.478;8.936;2023-07-09T04:21:45;19.70;99.90
15343;DHT22;7771;48.478;8.936;2023-07-09T04:24:11;19.70;99.90
15343;DHT22;7771;48.478;8.936;2023-07-09T04:26:38;19.70;99.90
15343;DHT22;7771;48.478;8.936;2023-07-09T04:29:05;19.80;99.90
15343;DHT22;7771;48.478;8.936;2023-07-09T04:31:33;19.70;99.90
15343;DHT22;7771;48.478;8.936;2023-07-09T04:36:29;19.70;99.90
15343;DHT22;7771;48.478;8.936;2023-07-09T04:38:55;19.80;99.90
15343;DHT22;7771;48.478;8.936;2023-07-09T04:41:23;19.70;99.90
15343;DHT22;7771;48.478;8.936;2023-07-09T04:43:50;19.80;99.90
15343;DHT22;7771;48.478;8.936;2023-07-09T04:46:17;19.80;99.90
15343;DHT22;7771;48.478;8.936;2023-07-09T04:48:45;19.90;99.90
15343;DHT22;7771;48.478;8.936;2023-07-09T04:51:12;19.90;99.90
15343;DHT22;7771;48.478;8.936;2023-07-09T04:56:06;19.90;99.90
15343;DHT22;7771;48.478;8.936;2023-07-09T04:58:34;20.00;99.90
15343;DHT22;7771;48.478;8.936;2023-07-09T05:01:00;20.00;99.90
15343;DHT22;7771;48.478;8.936;2023-07-09T05:10:53;20.10;99.90
15343;DHT22;7771;48.478;8.936;2023-07-09T05:13:19;20.20;99.90
15343;DHT22;7771;48.478;8.936;2023-07-09T05:18:14;20.20;99.90
15343;DHT22;7771;48.478;8.936;2023-07-09T05:20:41;20.30;99.90
15343;DHT22;7771;48.478;8.936;2023-07-09T05:23:08;20.30;99.90
15343;DHT22;7771;48.478;8.936;2023-07-09T05:25:35;20.40;99.90
15343;DHT22;7771;48.478;8.936;2023-07-09T05:28:02;20.40;99.90
15343;DHT22;7771;48.478;8.936;2023-07-09T05:30:29;20.50;99.90
15343;DHT22;7771;48.478;8.936;2023-07-09T05:32:56;20.60;99.90
15343;DHT22;7771;48.478;8.936;2023-07-09T05:35:24;20.70;99.90
15343;DHT22;7771;48.478;8.936;2023-07-09T05:37:52;20.70;99.90
15343;DHT22;7771;48.478;8.936;2023-07-09T05:40:19;20.80;99.90
15343;DHT22;7771;48.478;8.936;2023-07-09T05:42:46;20.90;99.90
15343;DHT22;7771;48.478;8.936;2023-07-09T05:45:14;21.00;99.90
15343;DHT22;7771;48.478;8.936;2023-07-09T05:47:41;21.10;99.90
15343;DHT22;7771;48.478;8.936;2023-07-09T05:50:08;21.10;99.90
15343;DHT22;7771;48.478;8.936;2023-07-09T05:52:35;21.30;99.90
15343;DHT22;7771;48.478;8.936;2023-07-09T05:55:02;21.30;99.90
15343;DHT22;7771;48.478;8.936;2023-07-09T05:59:58;21.50;99.90
15343;DHT22;7771;48.478;8.936;2023-07-09T06:02:25;21.60;99.90
15343;DHT22;7771;48.478;8.936;2023-07-09T06:04:53;21.70;99.90
15343;DHT22;7771;48.478;8.936;2023-07-09T06:07:21;21.70;99.90
15343;DHT22;7771;48.478;8.936;2023-07-09T06:09:46;21.80;99.90
15343;DHT22;7771;48.478;8.936;2023-07-09T06:12:14;21.90;99.90
15343;DHT22;7771;48.478;8.936;2023-07-09T06:14:41;22.00;99.90
15343;DHT22;7771;48.478;8.936;2023-07-09T06:17:07;22.10;99.90
15343;DHT22;7771;48.478;8.936;2023-07-09T06:24:31;22.40;99.90
15343;DHT22;7771;48.478;8.936;2023-07-09T06:26:58;22.50;99.90
15343;DHT22;7771;48.478;8.936;2023-07-09T06:29:25;22.60;99.90
15343;DHT22;7771;48.478;8.936;2023-07-09T06:31:53;22.70;99.90
15343;DHT22;7771;48.478;8.936;2023-07-09T06:34:21;22.80;99.90
15343;DHT22;7771;48.478;8.936;2023-07-09T06:36:47;22.90;99.90
15343;DHT22;7771;48.478;8.936;2023-07-09T06:41:42;23.20;99.90
15343;DHT22;7771;48.478;8.936;2023-07-09T06:44:10;23.50;99.90
15343;DHT22;7771;48.478;8.936;2023-07-09T06:51:34;27.00;99.90
15343;DHT22;7771;48.478;8.936;2023-07-09T06:54:01;28.40;99.50
15343;DHT22;7771;48.478;8.936;2023-07-09T06:56:28;29.90;96.10
15343;DHT22;7771;48.478;8.936;2023-07-09T06:58:54;31.20;93.20
15343;DHT22;7771;48.478;8.936;2023-07-09T07:01:22;32.40;90.60
15343;DHT22;7771;48.478;8.936;2023-07-09T07:03:49;33.50;86.30
15343;DHT22;7771;48.478;8.936;2023-07-09T07:06:16;34.40;81.40
15343;DHT22;7771;48.478;8.936;2023-07-09T07:08:42;35.40;77.50
15343;DHT22;7771;48.478;8.936;2023-07-09T07:11:09;36.30;74.10
15343;DHT22;7771;48.478;8.936;2023-07-09T07:13:36;37.10;70.50
15343;DHT22;7771;48.478;8.936;2023-07-09T07:16:04;37.60;68.20
15343;DHT22;7771;48.478;8.936;2023-07-09T07:18:29;38.10;66.40
15343;DHT22;7771;48.478;8.936;2023-07-09T07:20:57;38.50;64.00
15343;DHT22;7771;48.478;8.936;2023-07-09T07:23:24;38.80;63.80
15343;DHT22;7771;48.478;8.936;2023-07-09T07:25:51;39.20;63.00
15343;DHT22;7771;48.478;8.936;2023-07-09T07:28:18;39.60;61.30
15343;DHT22;7771;48.478;8.936;2023-07-09T07:30:45;40.00;60.50
15343;DHT22;7771;48.478;8.936;2023-07-09T07:33:13;40.30;60.10
15343;DHT22;7771;48.478;8.936;2023-07-09T07:35:41;40.60;59.30
15343;DHT22;7771;48.478;8.936;2023-07-09T07:38:09;40.90;58.60
15343;DHT22;7771;48.478;8.936;2023-07-09T07:40:35;41.20;57.40
15343;DHT22;7771;48.478;8.936;2023-07-09T07:43:02;41.50;56.70
15343;DHT22;7771;48.478;8.936;2023-07-09T07:45:29;41.80;56.40
15343;DHT22;7771;48.478;8.936;2023-07-09T07:47:56;42.10;55.60
15343;DHT22;7771;48.478;8.936;2023-07-09T07:50:22;42.40;55.20
15343;DHT22;7771;48.478;8.936;2023-07-09T07:52:49;42.70;54.60
15343;DHT22;7771;48.478;8.936;2023-07-09T07:55:16;43.00;54.10
15343;DHT22;7771;48.478;8.936;2023-07-09T07:57:42;43.30;53.30
15343;DHT22;7771;48.478;8.936;2023-07-09T08:00:10;43.50;53.20
15343;DHT22;7771;48.478;8.936;2023-07-09T08:02:37;43.50;52.10
15343;DHT22;7771;48.478;8.936;2023-07-09T08:05:05;43.60;52.70
15343;DHT22;7771;48.478;8.936;2023-07-09T08:07:32;43.80;52.50
15343;DHT22;7771;48.478;8.936;2023-07-09T08:09:59;43.90;52.40
15343;DHT22;7771;48.478;8.936;2023-07-09T08:12:27;44.00;51.80
15343;DHT22;7771;48.478;8.936;2023-07-09T08:14:54;44.00;51.80
15343;DHT22;7771;48.478;8.936;2023-07-09T08:17:21;43.50;51.30
15343;DHT22;7771;48.478;8.936;2023-07-09T08:19:51;43.00;52.00
15343;DHT22;7771;48.478;8.936;2023-07-09T08:22:17;42.10;51.80
15343;DHT22;7771;48.478;8.936;2023-07-09T08:24:44;41.20;52.50
15343;DHT22;7771;48.478;8.936;2023-07-09T08:27:10;40.30;53.40
15343;DHT22;7771;48.478;8.936;2023-07-09T08:29:38;39.50;54.80
15343;DHT22;7771;48.478;8.936;2023-07-09T08:32:06;38.90;54.70
15343;DHT22;7771;48.478;8.936;2023-07-09T08:34:34;38.30;55.20
15343;DHT22;7771;48.478;8.936;2023-07-09T08:37:01;37.80;56.70
15343;DHT22;7771;48.478;8.936;2023-07-09T08:39:28;37.30;56.70
15343;DHT22;7771;48.478;8.936;2023-07-09T08:42:00;37.00;56.90
15343;DHT22;7771;48.478;8.936;2023-07-09T08:47:29;36.50;57.10
15343;DHT22;7771;48.478;8.936;2023-07-09T08:49:56;36.40;57.50
15343;DHT22;7771;48.478;8.936;2023-07-09T08:52:26;36.20;57.40
15343;DHT22;7771;48.478;8.936;2023-07-09T08:54:51;36.10;56.90
15343;DHT22;7771;48.478;8.936;2023-07-09T08:57:21;36.00;56.60
15343;DHT22;7771;48.478;8.936;2023-07-09T08:59:48;35.90;56.40
15343;DHT22;7771;48.478;8.936;2023-07-09T09:02:22;35.90;56.30
15343;DHT22;7771;48.478;8.936;2023-07-09T09:04:43;35.80;56.30
15343;DHT22;7771;48.478;8.936;2023-07-09T09:07:16;35.80;56.50
15343;DHT22;7771;48.478;8.936;2023-07-09T09:09:44;35.90;56.30
15343;DHT22;7771;48.478;8.936;2023-07-09T09:12:19;36.00;56.50
15343;DHT22;7771;48.478;8.936;2023-07-09T09:14:49;36.00;56.40
15343;DHT22;7771;48.478;8.936;2023-07-09T09:17:19;36.00;56.30
15343;DHT22;7771;48.478;8.936;2023-07-09T09:19:54;36.00;56.00
15343;DHT22;7771;48.478;8.936;2023-07-09T09:22:22;36.10;56.10
15343;DHT22;7771;48.478;8.936;2023-07-09T09:25:05;36.10;55.80
15343;DHT22;7771;48.478;8.936;2023-07-09T09:27:31;36.10;56.40
15343;DHT22;7771;48.478;8.936;2023-07-09T09:29:58;36.10;56.40
15343;DHT22;7771;48.478;8.936;2023-07-09T09:32:27;36.10;56.00
15343;DHT22;7771;48.478;8.936;2023-07-09T09:34:54;36.20;56.10
15343;DHT22;7771;48.478;8.936;2023-07-09T09:37:27;36.20;55.90
15343;DHT22;7771;48.478;8.936;2023-07-09T09:39:52;36.20;55.60
15343;DHT22;7771;48.478;8.936;2023-07-09T09:42:19;36.10;55.80
15343;DHT22;7771;48.478;8.936;2023-07-09T09:44:46;36.00;56.50
15343;DHT22;7771;48.478;8.936;2023-07-09T09:47:14;36.00;56.90
15343;DHT22;7771;48.478;8.936;2023-07-09T09:52:14;36.10;57.20
15343;DHT22;7771;48.478;8.936;2023-07-09T09:54:41;36.10;56.90
15343;DHT22;7771;48.478;8.936;2023-07-09T09:59:41;36.20;56.70
15343;DHT22;7771;48.478;8.936;2023-07-09T10:02:18;36.20;56.90
15343;DHT22;7771;48.478;8.936;2023-07-09T10:04:45;36.20;56.90
15343;DHT22;7771;48.478;8.936;2023-07-09T10:07:15;36.20;57.00
15343;DHT22;7771;48.478;8.936;2023-07-09T10:09:46;36.30;57.20
15343;DHT22;7771;48.478;8.936;2023-07-09T10:12:32;36.40;57.50
15343;DHT22;7771;48.478;8.936;2023-07-09T10:15:00;36.50;57.50
15343;DHT22;7771;48.478;8.936;2023-07-09T10:17:43;36.50;57.50
15343;DHT22;7771;48.478;8.936;2023-07-09T10:20:15;36.60;57.40
15343;DHT22;7771;48.478;8.936;2023-07-09T10:22:39;36.60;57.00
15343;DHT22;7771;48.478;8.936;2023-07-09T10:25:10;36.70;57.10
15343;DHT22;7771;48.478;8.936;2023-07-09T10:27:40;36.70;57.30
15343;DHT22;7771;48.478;8.936;2023-07-09T10:33:07;36.80;56.80
15343;DHT22;7771;48.478;8.936;2023-07-09T10:35:37;36.80;56.00
15343;DHT22;7771;48.478;8.936;2023-07-09T10:40:35;36.60;56.20
15343;DHT22;7771;48.478;8.936;2023-07-09T10:43:01;36.50;56.60
15343;DHT22;7771;48.478;8.936;2023-07-09T10:45:30;36.50;56.30
15343;DHT22;7771;48.478;8.936;2023-07-09T10:47:58;36.50;56.50
15343;DHT22;7771;48.478;8.936;2023-07-09T10:50:30;36.40;56.60
15343;DHT22;7771;48.478;8.936;2023-07-09T10:52:54;36.40;56.40
15343;DHT22;7771;48.478;8.936;2023-07-09T10:55:26;36.40;56.10
15343;DHT22;7771;48.478;8.936;2023-07-09T10:58:14;36.40;55.40
15343;DHT22;7771;48.478;8.936;2023-07-09T11:00:36;36.50;56.00
15343;DHT22;7771;48.478;8.936;2023-07-09T11:03:04;36.50;55.40
15343;DHT22;7771;48.478;8.936;2023-07-09T11:05:29;36.60;55.20
15343;DHT22;7771;48.478;8.936;2023-07-09T11:10:41;36.70;54.50
15343;DHT22;7771;48.478;8.936;2023-07-09T11:13:11;36.70;54.40
15343;DHT22;7771;48.478;8.936;2023-07-09T11:15:39;36.70;54.70
15343;DHT22;7771;48.478;8.936;2023-07-09T11:18:06;36.70;55.30
15343;DHT22;7771;48.478;8.936;2023-07-09T11:23:05;36.80;54.60
15343;DHT22;7771;48.478;8.936;2023-07-09T11:25:40;36.90;54.20
15343;DHT22;7771;48.478;8.936;2023-07-09T11:28:03;36.90;53.30
15343;DHT22;7771;48.478;8.936;2023-07-09T11:30:28;37.00;52.60
15343;DHT22;7771;48.478;8.936;2023-07-09T11:32:59;37.00;52.30
15343;DHT22;7771;48.478;8.936;2023-07-09T11:35:26;37.10;52.60
15343;DHT22;7771;48.478;8.936;2023-07-09T11:37:52;37.20;52.40
15343;DHT22;7771;48.478;8.936;2023-07-09T11:40:21;37.30;52.60
15343;DHT22;7771;48.478;8.936;2023-07-09T11:42:52;37.40;52.30
15343;DHT22;7771;48.478;8.936;2023-07-09T11:45:21;37.50;52.10
15343;DHT22;7771;48.478;8.936;2023-07-09T11:47:49;37.60;51.90
15343;DHT22;7771;48.478;8.936;2023-07-09T11:50:21;37.50;52.00
15343;DHT22;7771;48.478;8.936;2023-07-09T11:52:45;37.50;52.10
15343;DHT22;7771;48.478;8.936;2023-07-09T11:57:56;37.60;51.50
15343;DHT22;7771;48.478;8.936;2023-07-09T12:00:21;37.60;51.70
15343;DHT22;7771;48.478;8.936;2023-07-09T12:02:49;37.70;51.70
15343;DHT22;7771;48.478;8.936;2023-07-09T12:05:18;37.70;51.20
15343;DHT22;7771;48.478;8.936;2023-07-09T12:07:43;37.70;51.20
15343;DHT22;7771;48.478;8.936;2023-07-09T12:10:19;37.70;50.90
15343;DHT22;7771;48.478;8.936;2023-07-09T12:12:46;37.70;51.00
15343;DHT22;7771;48.478;8.936;2023-07-09T12:15:16;37.70;51.00
15343;DHT22;7771;48.478;8.936;2023-07-09T12:17:42;37.70;51.20
15343;DHT22;7771;48.478;8.936;2023-07-09T12:22:39;37.70;51.30
15343;DHT22;7771;48.478;8.936;2023-07-09T12:25:10;37.70;51.10
15343;DHT22;7771;48.478;8.936;2023-07-09T12:27:33;37.60;51.00
15343;DHT22;7771;48.478;8.936;2023-07-09T12:30:00;37.70;50.60
15343;DHT22;7771;48.478;8.936;2023-07-09T12:32:28;37.70;50.80
15343;DHT22;7771;48.478;8.936;2023-07-09T12:34:55;37.80;50.40
15343;DHT22;7771;48.478;8.936;2023-07-09T12:37:21;37.80;50.10
15343;DHT22;7771;48.478;8.936;2023-07-09T12:39:50;37.70;50.30
15343;DHT22;7771;48.478;8.936;2023-07-09T12:42:16;37.70;50.30
15343;DHT22;7771;48.478;8.936;2023-07-09T12:44:43;37.70;50.40
15343;DHT22;7771;48.478;8.936;2023-07-09T12:47:12;37.70;50.00
15343;DHT22;7771;48.478;8.936;2023-07-09T12:49:39;37.70;50.30
15343;DHT22;7771;48.478;8.936;2023-07-09T12:52:14;37.70;49.90
15343;DHT22;7771;48.478;8.936;2023-07-09T12:54:34;37.70;49.60
15343;DHT22;7771;48.478;8.936;2023-07-09T12:57:01;37.80;49.60
15343;DHT22;7771;48.478;8.936;2023-07-09T12:59:37;37.80;49.80
15343;DHT22;7771;48.478;8.936;2023-07-09T13:01:59;37.90;49.60
15343;DHT22;7771;48.478;8.936;2023-07-09T13:04:29;38.00;49.50
15343;DHT22;7771;48.478;8.936;2023-07-09T13:06:54;38.00;48.90
15343;DHT22;7771;48.478;8.936;2023-07-09T13:09:21;38.00;49.50
15343;DHT22;7771;48.478;8.936;2023-07-09T13:11:48;38.00;49.30
15343;DHT22;7771;48.478;8.936;2023-07-09T13:14:20;38.00;48.70
15343;DHT22;7771;48.478;8.936;2023-07-09T13:16:46;38.00;49.00
15343;DHT22;7771;48.478;8.936;2023-07-09T13:19:13;38.00;49.00
15343;DHT22;7771;48.478;8.936;2023-07-09T13:21:40;37.90;49.10
15343;DHT22;7771;48.478;8.936;2023-07-09T13:24:15;38.00;49.00
15343;DHT22;7771;48.478;8.936;2023-07-09T13:26:40;37.90;48.90
15343;DHT22;7771;48.478;8.936;2023-07-09T13:29:12;38.00;48.60
15343;DHT22;7771;48.478;8.936;2023-07-09T13:31:37;38.00;48.60
15343;DHT22;7771;48.478;8.936;2023-07-09T13:34:08;38.10;48.50
15343;DHT22;7771;48.478;8.936;2023-07-09T13:36:33;38.10;48.10
15343;DHT22;7771;48.478;8.936;2023-07-09T13:38:59;38.20;48.10
15343;DHT22;7771;48.478;8.936;2023-07-09T13:41:26;38.20;47.60
15343;DHT22;7771;48.478;8.936;2023-07-09T13:43:54;38.30;48.30
15343;DHT22;7771;48.478;8.936;2023-07-09T13:46:21;38.40;47.80
15343;DHT22;7771;48.478;8.936;2023-07-09T13:48:47;38.40;47.60
15343;DHT22;7771;48.478;8.936;2023-07-09T13:51:17;38.40;47.50
15343;DHT22;7771;48.478;8.936;2023-07-09T13:53:44;38.40;48.30
15343;DHT22;7771;48.478;8.936;2023-07-09T13:56:11;38.50;48.20
15343;DHT22;7771;48.478;8.936;2023-07-09T13:58:38;38.60;48.30
15343;DHT22;7771;48.478;8.936;2023-07-09T14:01:10;38.70;47.50
15343;DHT22;7771;48.478;8.936;2023-07-09T14:03:35;38.80;47.40
15343;DHT22;7771;48.478;8.936;2023-07-09T14:06:02;38.70;47.30
15343;DHT22;7771;48.478;8.936;2023-07-09T14:08:29;38.80;47.10
15343;DHT22;7771;48.478;8.936;2023-07-09T14:13:24;38.70;45.00
15343;DHT22;7771;48.478;8.936;2023-07-09T14:15:51;38.70;43.80
15343;DHT22;7771;48.478;8.936;2023-07-09T14:18:20;38.70;43.20
15343;DHT22;7771;48.478;8.936;2023-07-09T14:20:46;38.70;43.10
15343;DHT22;7771;48.478;8.936;2023-07-09T14:23:14;38.60;43.50
15343;DHT22;7771;48.478;8.936;2023-07-09T14:25:40;38.60;43.40
15343;DHT22;7771;48.478;8.936;2023-07-09T14:28:10;38.60;43.80
15343;DHT22;7771;48.478;8.936;2023-07-09T14:30:35;38.60;44.30
15343;DHT22;7771;48.478;8.936;2023-07-09T14:33:02;38.60;44.70
15343;DHT22;7771;48.478;8.936;2023-07-09T14:35:29;38.60;44.80
15343;DHT22;7771;48.478;8.936;2023-07-09T14:37:56;38.70;45.30
15343;DHT22;7771;48.478;8.936;2023-07-09T14:40:24;38.70;45.40
15343;DHT22;7771;48.478;8.936;2023-07-09T14:42:51;38.70;45.10
15343;DHT22;7771;48.478;8.936;2023-07-09T14:45:21;38.70;45.00
15343;DHT22;7771;48.478;8.936;2023-07-09T14:47:46;38.60;45.60
15343;DHT22;7771;48.478;8.936;2023-07-09T14:50:13;38.60;45.20
15343;DHT22;7771;48.478;8.936;2023-07-09T14:52:40;38.60;45.00
15343;DHT22;7771;48.478;8.936;2023-07-09T14:55:08;38.60;45.00
15343;DHT22;7771;48.478;8.936;2023-07-09T14:57:33;38.40;45.00
15343;DHT22;7771;48.478;8.936;2023-07-09T15:00:00;38.20;45.30
15343;DHT22;7771;48.478;8.936;2023-07-09T15:02:32;38.00;45.40
15343;DHT22;7771;48.478;8.936;2023-07-09T15:04:59;37.80;45.70
15343;DHT22;7771;48.478;8.936;2023-07-09T15:07:26;37.70;45.80
15343;DHT22;7771;48.478;8.936;2023-07-09T15:09:56;37.60;46.30
15343;DHT22;7771;48.478;8.936;2023-07-09T15:12:24;37.60;46.00
15343;DHT22;7771;48.478;8.936;2023-07-09T15:14:48;37.60;46.20
15343;DHT22;7771;48.478;8.936;2023-07-09T15:17:15;37.60;46.10
15343;DHT22;7771;48.478;8.936;2023-07-09T15:19:42;37.70;46.30
15343;DHT22;7771;48.478;8.936;2023-07-09T15:22:14;37.70;46.80
15343;DHT22;7771;48.478;8.936;2023-07-09T15:27:05;37.80;46.70
15343;DHT22;7771;48.478;8.936;2023-07-09T15:29:31;37.80;46.70
15343;DHT22;7771;48.478;8.936;2023-07-09T15:31:59;37.70;46.40
15343;DHT22;7771;48.478;8.936;2023-07-09T15:34:26;37.60;46.30
15343;DHT22;7771;48.478;8.936;2023-07-09T15:36:53;37.50;46.20
15343;DHT22;7771;48.478;8.936;2023-07-09T15:39:21;37.40;46.30
15343;DHT22;7771;48.478;8.936;2023-07-09T15:41:48;37.30;46.50
15343;DHT22;7771;48.478;8.936;2023-07-09T15:44:15;37.20;46.70
15343;DHT22;7771;48.478;8.936;2023-07-09T15:46:45;37.20;46.90
15343;DHT22;7771;48.478;8.936;2023-07-09T15:49:11;37.10;46.90
15343;DHT22;7771;48.478;8.936;2023-07-09T15:51:36;37.00;47.20
15343;DHT22;7771;48.478;8.936;2023-07-09T15:54:07;36.90;47.40
15343;DHT22;7771;48.478;8.936;2023-07-09T15:56:29;36.80;48.00
15343;DHT22;7771;48.478;8.936;2023-07-09T16:01:24;36.60;48.30
15343;DHT22;7771;48.478;8.936;2023-07-09T16:06:20;36.50;48.50
15343;DHT22;7771;48.478;8.936;2023-07-09T16:11:18;36.30;48.80
15343;DHT22;7771;48.478;8.936;2023-07-09T16:13:43;36.20;48.90
15343;DHT22;7771;48.478;8.936;2023-07-09T16:16:17;36.10;49.10
15343;DHT22;7771;48.478;8.936;2023-07-09T16:18:42;36.00;49.20
15343;DHT22;7771;48.478;8.936;2023-07-09T16:21:28;35.90;48.90
15343;DHT22;7771;48.478;8.936;2023-07-09T16:23:55;35.90;48.90
15343;DHT22;7771;48.478;8.936;2023-07-09T16:26:21;35.80;48.90
15343;DHT22;7771;48.478;8.936;2023-07-09T16:28:49;35.80;49.00
15343;DHT22;7771;48.478;8.936;2023-07-09T16:31:15;35.80;49.10
15343;DHT22;7771;48.478;8.936;2023-07-09T16:33:43;35.80;49.20
15343;DHT22;7771;48.478;8.936;2023-07-09T16:36:15;35.70;49.40
15343;DHT22;7771;48.478;8.936;2023-07-09T16:38:41;35.70;49.70
15343;DHT22;7771;48.478;8.936;2023-07-09T16:41:10;35.60;50.00
15343;DHT22;7771;48.478;8.936;2023-07-09T16:43:35;35.60;50.60
15343;DHT22;7771;48.478;8.936;2023-07-09T16:46:03;35.50;50.90
15343;DHT22;7771;48.478;8.936;2023-07-09T16:48:29;35.50;51.10
15343;DHT22;7771;48.478;8.936;2023-07-09T16:50:57;35.40;51.00
15343;DHT22;7771;48.478;8.936;2023-07-09T16:53:24;35.40;51.10
15343;DHT22;7771;48.478;8.936;2023-07-09T16:58:24;35.40;52.10
15343;DHT22;7771;48.478;8.936;2023-07-09T17:00:46;35.30;52.70
15343;DHT22;7771;48.478;8.936;2023-07-09T17:03:12;35.30;52.90
15343;DHT22;7771;48.478;8.936;2023-07-09T17:05:39;35.30;53.00
15343;DHT22;7771;48.478;8.936;2023-07-09T17:10:34;35.30;53.30
15343;DHT22;7771;48.478;8.936;2023-07-09T17:13:01;35.30;53.40
15343;DHT22;7771;48.478;8.936;2023-07-09T17:15:30;35.30;53.50
15343;DHT22;7771;48.478;8.936;2023-07-09T17:17:57;35.30;53.50
15343;DHT22;7771;48.478;8.936;2023-07-09T17:20:26;35.20;53.30
15343;DHT22;7771;48.478;8.936;2023-07-09T17:25:27;35.10;53.80
15343;DHT22;7771;48.478;8.936;2023-07-09T17:27:51;35.10;53.80